createdAt,value
2024-02-22T00:00:53.868Z,1095.00
2024-02-22T00:01:53.891Z,1106.00
2024-02-22T00:02:53.853Z,1104.00
2024-02-22T00:03:53.851Z,1108.00
2024-02-22T00:04:54.077Z,1112.00
2024-02-22T00:05:53.905Z,1099.00
2024-02-22T00:06:53.975Z,1095.00
2024-02-22T00:07:53.913Z,1111.00
2024-02-22T00:08:53.939Z,1111.00
2024-02-22T00:09:53.858Z,1092.00
2024-02-22T00:10:54.020Z,1104.00
2024-02-22T00:11:53.947Z,1100.00
2024-02-22T00:12:53.860Z,1102.00
2024-02-22T00:13:53.921Z,1094.00
2024-02-22T00:14:53.877Z,1095.00
2024-02-22T00:15:53.892Z,1091.00
2024-02-22T00:16:54.043Z,1101.00
2024-02-22T00:17:53.986Z,1092.00
2024-02-22T00:18:53.884Z,1102.00
2024-02-22T00:19:54.525Z,1096.00
2024-02-22T00:20:53.916Z,1095.00
2024-02-22T00:21:53.903Z,1097.00
2024-02-22T00:22:53.962Z,1107.00
2024-02-22T00:23:53.988Z,1093.00
2024-02-22T00:24:54.055Z,1097.00
2024-02-22T00:25:54.155Z,1092.00
2024-02-22T00:26:54.166Z,1104.00
2024-02-22T00:27:54.210Z,1094.00
2024-02-22T00:28:54.358Z,1091.00
2024-02-22T00:29:54.318Z,1092.00
2024-02-22T00:30:54.413Z,1093.00
2024-02-22T00:31:54.484Z,1099.00
2024-02-22T00:32:54.507Z,1085.00
2024-02-22T00:33:54.586Z,1097.00
2024-02-22T00:34:54.658Z,1092.00
2024-02-22T00:35:54.649Z,1101.00
2024-02-22T00:36:54.709Z,1092.00
2024-02-22T00:37:54.822Z,1092.00
2024-02-22T00:38:54.836Z,1084.00
2024-02-22T00:39:54.903Z,1096.00
2024-02-22T00:40:55.033Z,1093.00
2024-02-22T00:41:55.017Z,1092.00
2024-02-22T00:42:55.084Z,1083.00
2024-02-22T00:43:55.215Z,1077.00
2024-02-22T00:44:55.175Z,1092.00
2024-02-22T00:45:55.252Z,1084.00
2024-02-22T00:46:55.504Z,1073.00
2024-02-22T00:47:55.436Z,1086.00
2024-02-22T00:48:55.444Z,1089.00
2024-02-22T00:49:55.533Z,1089.00
2024-02-22T00:50:55.606Z,1086.00
2024-02-22T00:51:55.599Z,1083.00
2024-02-22T00:52:55.737Z,1087.00
2024-02-22T00:53:55.737Z,1088.00
2024-02-22T00:54:55.808Z,1082.00
2024-02-22T00:55:55.889Z,1078.00
2024-02-22T00:56:55.909Z,1089.00
2024-02-22T00:57:56.002Z,1083.00
2024-02-22T00:58:56.074Z,1089.00
2024-02-22T00:59:56.123Z,1087.00
2024-02-22T01:00:56.233Z,1077.00
2024-02-22T01:01:56.266Z,1084.00
2024-02-22T01:02:56.310Z,1076.00
2024-02-22T01:03:56.445Z,1077.00
2024-02-22T01:04:56.457Z,1078.00
2024-02-22T01:05:56.551Z,1083.00
2024-02-22T01:06:56.585Z,1083.00
2024-02-22T01:07:56.737Z,1077.00
2024-02-22T01:08:56.713Z,1077.00
2024-02-22T01:09:56.772Z,1080.00
2024-02-22T01:10:56.877Z,1086.00
2024-02-22T01:11:56.958Z,1081.00
2024-02-22T01:12:56.959Z,1078.00
2024-02-22T01:13:57.044Z,1080.00
2024-02-22T01:14:57.066Z,1071.00
2024-02-22T01:15:57.201Z,1075.00
2024-02-22T01:16:57.267Z,1073.00
2024-02-22T01:17:57.268Z,1077.00
2024-02-22T01:18:57.382Z,1071.00
2024-02-22T01:19:57.553Z,1073.00
2024-02-22T01:20:57.482Z,1073.00
2024-02-22T01:21:57.552Z,1078.00
2024-02-22T01:22:57.653Z,1074.00
2024-02-22T01:23:57.666Z,1071.00
2024-02-22T01:24:57.714Z,1063.00
2024-02-22T01:25:57.860Z,1074.00
2024-02-22T01:26:57.850Z,1083.00
2024-02-22T01:27:57.909Z,1083.00
2024-02-22T01:28:58.060Z,1076.00
2024-02-22T01:29:58.063Z,1078.00
2024-02-22T01:30:58.146Z,1073.00
2024-02-22T01:31:58.228Z,1079.00
2024-02-22T01:32:58.330Z,1073.00
2024-02-22T01:33:58.356Z,1066.00
2024-02-22T01:34:58.404Z,1070.00
2024-02-22T01:35:58.450Z,1063.00
2024-02-22T01:36:58.558Z,1073.00
2024-02-22T01:37:58.613Z,1071.00
2024-02-22T01:38:58.671Z,1070.00
2024-02-22T01:39:58.724Z,1071.00
2024-02-22T01:40:59.169Z,1064.00
2024-02-22T01:41:58.862Z,1067.00
2024-02-22T01:42:58.916Z,1070.00
2024-02-22T01:43:59.061Z,1066.00
2024-02-22T01:44:59.044Z,1068.00
2024-02-22T01:45:59.112Z,1066.00
2024-02-22T01:46:59.219Z,1067.00
2024-02-22T01:47:59.304Z,1068.00
2024-02-22T01:48:59.372Z,1063.00
2024-02-22T01:49:59.428Z,1058.00
2024-02-22T01:50:59.446Z,1059.00
2024-02-22T01:51:59.602Z,1067.00
2024-02-22T01:52:59.631Z,1071.00
2024-02-22T01:53:59.670Z,1071.00
2024-02-22T01:54:59.776Z,1053.00
2024-02-22T01:55:59.999Z,1055.00
2024-02-22T01:56:59.851Z,1062.00
2024-02-22T01:57:59.950Z,1064.00
2024-02-22T01:59:00.052Z,1059.00
2024-02-22T02:00:00.058Z,1064.00
2024-02-22T02:01:00.153Z,1059.00
2024-02-22T02:02:00.323Z,1063.00
2024-02-22T02:03:00.242Z,1065.00
2024-02-22T02:04:00.367Z,1057.00
2024-02-22T02:05:00.441Z,1061.00
2024-02-22T02:06:00.469Z,1060.00
2024-02-22T02:07:00.523Z,1055.00
2024-02-22T02:08:00.597Z,1058.00
2024-02-22T02:09:00.626Z,1062.00
2024-02-22T02:10:00.695Z,1060.00
2024-02-22T02:11:00.887Z,1061.00
2024-02-22T02:12:00.893Z,1068.00
2024-02-22T02:13:00.861Z,1060.00
2024-02-22T02:14:00.995Z,1054.00
2024-02-22T02:15:01.003Z,1059.00
2024-02-22T02:16:01.076Z,1067.00
2024-02-22T02:17:01.156Z,1060.00
2024-02-22T02:18:01.216Z,1058.00
2024-02-22T02:19:01.313Z,1052.00
2024-02-22T02:20:01.306Z,1052.00
2024-02-22T02:21:01.385Z,1061.00
2024-02-22T02:22:01.419Z,1057.00
2024-02-22T02:23:01.552Z,1054.00
2024-02-22T02:24:01.550Z,1053.00
2024-02-22T02:25:01.636Z,1051.00
2024-02-22T02:26:01.748Z,1052.00
2024-02-22T02:27:01.733Z,1066.00
2024-02-22T02:28:01.819Z,1055.00
2024-02-22T02:29:01.943Z,1052.00
2024-02-22T02:30:01.913Z,1050.00
2024-02-22T02:31:01.985Z,1056.00
2024-02-22T02:32:02.121Z,1050.00
2024-02-22T02:33:02.163Z,1039.00
2024-02-22T02:34:02.256Z,1050.00
2024-02-22T02:35:02.322Z,1051.00
2024-02-22T02:36:02.321Z,1052.00
2024-02-22T02:37:02.370Z,1055.00
2024-02-22T02:38:02.472Z,1054.00
2024-02-22T02:39:02.493Z,1045.00
2024-02-22T02:40:02.589Z,1047.00
2024-02-22T02:41:02.694Z,1041.00
2024-02-22T02:42:02.728Z,1055.00
2024-02-22T02:43:02.742Z,1047.00
2024-02-22T02:44:02.932Z,1045.00
2024-02-22T02:45:03.018Z,1046.00
2024-02-22T02:46:03.026Z,1053.00
2024-02-22T02:47:03.127Z,1049.00
2024-02-22T02:48:03.227Z,1053.00
2024-02-22T02:49:03.260Z,1040.00
2024-02-22T02:50:03.279Z,1043.00
2024-02-22T02:51:03.274Z,1051.00
2024-02-22T02:52:03.346Z,1037.00
2024-02-22T02:53:03.505Z,1049.00
2024-02-22T02:54:03.472Z,1045.00
2024-02-22T02:55:03.522Z,1044.00
2024-02-22T02:56:03.613Z,1046.00
2024-02-22T02:57:03.657Z,1042.00
2024-02-22T02:58:03.719Z,1042.00
2024-02-22T02:59:03.815Z,1041.00
2024-02-22T03:00:03.852Z,1046.00
2024-02-22T03:01:03.943Z,1038.00
2024-02-22T03:02:04.021Z,1044.00
2024-02-22T03:03:04.116Z,1048.00
2024-02-22T03:04:04.125Z,1042.00
2024-02-22T03:05:04.221Z,1037.00
2024-02-22T03:06:04.400Z,1045.00
2024-02-22T03:07:04.293Z,1039.00
2024-02-22T03:08:04.368Z,1032.00
2024-02-22T03:09:04.417Z,1039.00
2024-02-22T03:10:04.477Z,1032.00
2024-02-22T03:11:04.765Z,1040.00
2024-02-22T03:12:04.706Z,1040.00
2024-02-22T03:13:04.676Z,1040.00
2024-02-22T03:14:04.870Z,1035.00
2024-02-22T03:15:04.810Z,1038.00
2024-02-22T03:16:04.871Z,1029.00
2024-02-22T03:17:05.005Z,1035.00
2024-02-22T03:18:05.081Z,1031.00
2024-02-22T03:19:05.101Z,1034.00
2024-02-22T03:20:05.184Z,1028.00
2024-02-22T03:21:05.202Z,1034.00
2024-02-22T03:22:05.261Z,1033.00
2024-02-22T03:23:05.399Z,1032.00
2024-02-22T03:24:05.391Z,1029.00
2024-02-22T03:25:05.467Z,1035.00
2024-02-22T03:26:05.542Z,1020.00
2024-02-22T03:27:05.589Z,1041.00
2024-02-22T03:28:05.650Z,1035.00
2024-02-22T03:29:05.722Z,1036.00
2024-02-22T03:30:05.776Z,1025.00
2024-02-22T03:31:05.861Z,1031.00
2024-02-22T03:32:05.910Z,1037.00
2024-02-22T03:33:06.013Z,1025.00
2024-02-22T03:34:06.081Z,1044.00
2024-02-22T03:35:06.275Z,1028.00
2024-02-22T03:36:06.150Z,1024.00
2024-02-22T03:37:06.245Z,1036.00
2024-02-22T03:38:06.313Z,1026.00
2024-02-22T03:39:06.412Z,1030.00
2024-02-22T03:40:06.441Z,1032.00
2024-02-22T03:41:06.523Z,1029.00
2024-02-22T03:42:06.566Z,1031.00
2024-02-22T03:43:06.644Z,1026.00
2024-02-22T03:44:06.730Z,1030.00
2024-02-22T03:45:06.756Z,1022.00
2024-02-22T03:46:06.830Z,1024.00
2024-02-22T03:47:06.942Z,1026.00
2024-02-22T03:48:07.078Z,1033.00
2024-02-22T03:49:07.069Z,1031.00
2024-02-22T03:50:07.229Z,1022.00
2024-02-22T03:51:07.169Z,1030.00
2024-02-22T03:52:07.246Z,1029.00
2024-02-22T03:53:07.349Z,1015.00
2024-02-22T03:54:07.359Z,1024.00
2024-02-22T03:55:07.459Z,1022.00
2024-02-22T03:56:07.548Z,1031.00
2024-02-22T03:57:07.577Z,1028.00
2024-02-22T03:58:08.096Z,1031.00
2024-02-22T03:59:07.833Z,1029.00
2024-02-22T04:00:07.906Z,1023.00
2024-02-22T04:01:07.933Z,1028.00
2024-02-22T04:02:07.927Z,1022.00
2024-02-22T04:03:07.970Z,1023.00
2024-02-22T04:04:08.084Z,1018.00
2024-02-22T04:05:08.143Z,1021.00
2024-02-22T04:06:08.195Z,1024.00
2024-02-22T04:07:08.221Z,1018.00
2024-02-22T04:08:08.297Z,1017.00
2024-02-22T04:09:08.355Z,1020.00
2024-02-22T04:10:08.398Z,1021.00
2024-02-22T04:11:08.561Z,1013.00
2024-02-22T04:12:08.591Z,1010.00
2024-02-22T04:13:08.601Z,1017.00
2024-02-22T04:14:08.759Z,1019.00
2024-02-22T04:15:08.724Z,1013.00
2024-02-22T04:16:08.773Z,1010.00
2024-02-22T04:17:08.909Z,1007.00
2024-02-22T04:18:09.011Z,1016.00
2024-02-22T04:19:19.937Z,600.00
2024-02-22T04:20:16.290Z,600.00
2024-02-22T04:21:16.198Z,600.00
2024-02-22T04:22:16.194Z,600.00
2024-02-22T04:23:16.274Z,600.00
2024-02-22T04:24:16.197Z,600.00
2024-02-22T04:25:16.238Z,602.00
2024-02-22T04:26:16.270Z,604.00
2024-02-22T04:27:16.202Z,602.00
2024-02-22T04:28:16.209Z,601.00
2024-02-22T04:29:16.368Z,601.00
2024-02-22T04:30:16.210Z,604.00
2024-02-22T04:31:16.208Z,603.00
2024-02-22T04:32:16.262Z,601.00
2024-02-22T04:33:16.318Z,604.00
2024-02-22T04:34:16.270Z,603.00
2024-02-22T04:35:16.375Z,606.00
2024-02-22T04:36:16.233Z,606.00
2024-02-22T04:37:16.232Z,604.00
2024-02-22T04:38:16.349Z,603.00
2024-02-22T04:39:16.222Z,603.00
2024-02-22T04:40:16.242Z,603.00
2024-02-22T04:41:16.267Z,607.00
2024-02-22T04:42:16.226Z,606.00
2024-02-22T04:43:16.229Z,605.00
2024-02-22T04:44:16.294Z,605.00
2024-02-22T04:45:16.298Z,606.00
2024-02-22T04:46:16.352Z,601.00
2024-02-22T04:47:16.475Z,603.00
2024-02-22T04:48:16.551Z,601.00
2024-02-22T04:49:16.582Z,601.00
2024-02-22T04:50:16.662Z,602.00
2024-02-22T04:51:16.659Z,608.00
2024-02-22T04:52:16.657Z,606.00
2024-02-22T04:53:16.842Z,604.00
2024-02-22T04:54:16.782Z,607.00
2024-02-22T04:55:16.830Z,604.00
2024-02-22T04:56:16.956Z,607.00
2024-02-22T04:57:16.954Z,602.00
2024-02-22T04:58:16.989Z,601.00
2024-02-22T04:59:17.076Z,607.00
2024-02-22T05:00:17.112Z,607.00
2024-02-22T05:01:17.190Z,601.00
2024-02-22T05:02:17.259Z,603.00
2024-02-22T05:03:17.319Z,604.00
2024-02-22T05:04:17.370Z,606.00
2024-02-22T05:05:17.409Z,603.00
2024-02-22T05:06:17.471Z,601.00
2024-02-22T05:07:17.521Z,606.00
2024-02-22T05:08:17.668Z,606.00
2024-02-22T05:09:17.617Z,602.00
2024-02-22T05:10:17.662Z,606.00
2024-02-22T05:11:17.773Z,604.00
2024-02-22T05:12:17.756Z,605.00
2024-02-22T05:13:17.801Z,608.00
2024-02-22T05:14:17.966Z,604.00
2024-02-22T05:15:17.922Z,607.00
2024-02-22T05:16:17.974Z,606.00
2024-02-22T05:17:18.019Z,603.00
2024-02-22T05:18:18.102Z,604.00
2024-02-22T05:19:18.138Z,605.00
2024-02-22T05:20:18.232Z,605.00
2024-02-22T05:21:18.208Z,607.00
2024-02-22T05:22:18.242Z,607.00
2024-02-22T05:23:18.317Z,606.00
2024-02-22T05:24:18.338Z,604.00
2024-02-22T05:25:18.411Z,606.00
2024-02-22T05:26:18.517Z,607.00
2024-02-22T05:27:18.510Z,606.00
2024-02-22T05:28:18.542Z,608.00
2024-02-22T05:29:18.645Z,609.00
2024-02-22T05:30:18.637Z,609.00
2024-02-22T05:31:18.674Z,604.00
2024-02-22T05:32:18.854Z,606.00
2024-02-22T05:33:18.871Z,604.00
2024-02-22T05:34:18.876Z,607.00
2024-02-22T05:35:18.935Z,603.00
2024-02-22T05:36:18.873Z,607.00
2024-02-22T05:37:18.930Z,607.00
2024-02-22T05:38:19.040Z,608.00
2024-02-22T05:39:19.018Z,608.00
2024-02-22T05:40:19.055Z,603.00
2024-02-22T05:41:19.306Z,604.00
2024-02-22T05:42:19.153Z,607.00
2024-02-22T05:43:19.196Z,607.00
2024-02-22T05:44:19.364Z,606.00
2024-02-22T05:45:19.289Z,606.00
2024-02-22T05:46:19.356Z,604.00
2024-02-22T05:47:19.435Z,611.00
2024-02-22T05:48:19.573Z,609.00
2024-02-22T05:49:19.545Z,605.00
2024-02-22T05:50:19.652Z,606.00
2024-02-22T05:51:19.596Z,606.00
2024-02-22T05:52:19.846Z,606.00
2024-02-22T05:53:19.746Z,604.00
2024-02-22T05:54:19.736Z,606.00
2024-02-22T05:55:19.787Z,604.00
2024-02-22T05:56:19.867Z,607.00
2024-02-22T05:57:19.882Z,608.00
2024-02-22T05:58:19.948Z,606.00
2024-02-22T05:59:20.046Z,605.00
2024-02-22T06:00:20.028Z,606.00
2024-02-22T06:01:20.176Z,610.00
2024-02-22T06:02:20.166Z,608.00
2024-02-22T06:03:20.169Z,607.00
2024-02-22T06:04:20.252Z,607.00
2024-02-22T06:05:20.342Z,609.00
2024-02-22T06:06:20.342Z,605.00
2024-02-22T06:07:20.408Z,610.00
2024-02-22T06:08:20.470Z,606.00
2024-02-22T06:09:20.438Z,608.00
2024-02-22T06:10:20.494Z,608.00
2024-02-22T06:11:20.714Z,607.00
2024-02-22T06:12:20.641Z,609.00
2024-02-22T06:13:20.627Z,605.00
2024-02-22T06:14:20.726Z,606.00
2024-02-22T06:15:20.729Z,606.00
2024-02-22T06:16:20.798Z,605.00
2024-02-22T06:17:20.913Z,608.00
2024-02-22T06:18:20.985Z,605.00
2024-02-22T06:19:20.999Z,607.00
2024-02-22T06:20:21.084Z,606.00
2024-02-22T06:21:21.014Z,605.00
2024-02-22T06:22:21.364Z,605.00
2024-02-22T06:23:21.180Z,607.00
2024-02-22T06:24:21.120Z,606.00
2024-02-22T06:25:21.265Z,606.00
2024-02-22T06:26:21.331Z,608.00
2024-02-22T06:27:21.265Z,607.00
2024-02-22T06:28:21.318Z,607.00
2024-02-22T06:29:21.470Z,608.00
2024-02-22T06:30:21.409Z,608.00
2024-02-22T06:31:21.904Z,610.00
2024-02-22T06:32:21.523Z,609.00
2024-02-22T06:33:21.616Z,605.00
2024-02-22T06:34:21.643Z,601.00
2024-02-22T06:35:21.775Z,602.00
2024-02-22T06:36:21.794Z,601.00
2024-02-22T06:37:23.069Z,604.00
2024-02-22T06:38:21.804Z,603.00
2024-02-22T06:39:21.764Z,608.00
2024-02-22T06:40:21.750Z,610.00
2024-02-22T06:41:21.853Z,614.00
2024-02-22T06:42:21.893Z,614.00
2024-02-22T06:43:21.752Z,622.00
2024-02-22T06:44:21.894Z,622.00
2024-02-22T06:45:21.753Z,627.00
2024-02-22T06:46:21.796Z,629.00
2024-02-22T06:47:21.759Z,636.00
2024-02-22T06:48:21.900Z,637.00
2024-02-22T06:49:21.815Z,642.00
2024-02-22T06:50:21.877Z,648.00
2024-02-22T06:51:21.770Z,648.00
2024-02-22T06:52:21.851Z,658.00
2024-02-22T06:53:21.795Z,666.00
2024-02-22T06:54:21.773Z,680.00
2024-02-22T06:55:21.770Z,693.00
2024-02-22T06:56:21.835Z,733.00
2024-02-22T06:57:21.765Z,903.00
2024-02-22T06:58:21.773Z,897.00
2024-02-22T06:59:22.080Z,885.00
2024-02-22T07:00:21.838Z,876.00
2024-02-22T07:01:21.837Z,890.00
2024-02-22T07:02:21.855Z,899.00
2024-02-22T07:03:21.841Z,928.00
2024-02-22T07:04:21.931Z,947.00
2024-02-22T07:05:21.870Z,963.00
2024-02-22T07:06:21.903Z,984.00
2024-02-22T07:07:21.805Z,998.00
2024-02-22T07:08:21.871Z,1015.00
2024-02-22T07:09:21.801Z,1016.00
2024-02-22T07:10:21.885Z,1044.00
2024-02-22T07:11:22.053Z,1061.00
2024-02-22T07:12:21.831Z,1075.00
2024-02-22T07:13:22.016Z,1096.00
2024-02-22T07:14:21.860Z,1112.00
2024-02-22T07:15:21.827Z,1131.00
2024-02-22T07:16:21.849Z,1139.00
2024-02-22T07:17:23.349Z,1163.00
2024-02-22T07:18:21.940Z,1175.00
2024-02-22T07:19:21.933Z,1201.00
2024-02-22T07:20:21.980Z,1214.00
2024-02-22T07:21:22.040Z,1227.00
2024-02-22T07:22:22.875Z,1236.00
2024-02-22T07:23:22.182Z,1265.00
2024-02-22T07:24:22.138Z,1269.00
2024-02-22T07:25:22.361Z,1277.00
2024-02-22T07:26:22.256Z,1299.00
2024-02-22T07:27:22.306Z,1305.00
2024-02-22T07:28:22.339Z,1323.00
2024-02-22T07:29:22.444Z,1335.00
2024-02-22T07:30:22.420Z,1351.00
2024-02-22T07:31:22.484Z,1362.00
2024-02-22T07:32:22.668Z,1380.00
2024-02-22T07:33:22.705Z,1388.00
2024-02-22T07:34:22.763Z,1384.00
2024-02-22T07:35:22.706Z,1398.00
2024-02-22T07:36:22.716Z,1414.00
2024-02-22T07:37:22.771Z,1439.00
2024-02-22T07:38:22.840Z,1446.00
2024-02-22T07:39:22.837Z,1443.00
2024-02-22T07:40:22.843Z,1439.00
2024-02-22T07:41:22.889Z,1386.00
2024-02-22T07:42:23.402Z,1369.00
2024-02-22T07:43:22.966Z,1349.00
2024-02-22T07:44:24.945Z,1304.00
2024-02-22T07:45:23.030Z,1245.00
2024-02-22T07:46:23.076Z,1251.00
2024-02-22T07:47:23.500Z,1242.00
2024-02-22T07:48:23.283Z,1242.00
2024-02-22T07:49:23.285Z,1232.00
2024-02-22T07:50:23.345Z,1210.00
2024-02-22T07:51:23.377Z,1175.00
2024-02-22T07:52:23.907Z,1149.00
2024-02-22T07:53:23.521Z,1139.00
2024-02-22T07:54:23.549Z,1115.00
2024-02-22T07:55:23.604Z,1098.00
2024-02-22T07:56:23.704Z,1086.00
2024-02-22T07:57:23.696Z,1064.00
2024-02-22T07:58:23.695Z,1042.00
2024-02-22T07:59:23.795Z,1031.00
2024-02-22T08:00:23.777Z,1021.00
2024-02-22T08:01:23.788Z,1013.00
2024-02-22T08:02:23.785Z,997.00
2024-02-22T08:03:23.735Z,977.00
2024-02-22T08:04:23.805Z,955.00
2024-02-22T08:05:23.926Z,949.00
2024-02-22T08:06:23.812Z,926.00
2024-02-22T08:07:23.782Z,911.00
2024-02-22T08:08:23.837Z,879.00
2024-02-22T08:09:23.807Z,881.00
2024-02-22T08:10:23.835Z,866.00
2024-02-22T08:11:23.939Z,861.00
2024-02-22T08:12:24.129Z,846.00
2024-02-22T08:13:23.890Z,825.00
2024-02-22T08:14:23.928Z,809.00
2024-02-22T08:15:23.932Z,816.00
2024-02-22T08:16:24.011Z,769.00
2024-02-22T08:17:24.008Z,777.00
2024-02-22T08:18:24.104Z,747.00
2024-02-22T08:19:24.064Z,749.00
2024-02-22T08:20:24.296Z,733.00
2024-02-22T08:21:24.162Z,724.00
2024-02-22T08:22:24.416Z,728.00
2024-02-22T08:23:24.153Z,714.00
2024-02-22T08:24:24.150Z,712.00
2024-02-22T08:25:25.907Z,679.00
2024-02-22T08:26:24.438Z,676.00
2024-02-22T08:27:24.412Z,683.00
2024-02-22T08:28:24.431Z,656.00
2024-02-22T08:29:24.203Z,653.00
2024-02-22T08:30:24.197Z,652.00
2024-02-22T08:31:24.173Z,654.00
2024-02-22T08:32:24.491Z,642.00
2024-02-22T08:33:24.297Z,639.00
2024-02-22T08:34:24.303Z,635.00
2024-02-22T08:35:24.304Z,639.00
2024-02-22T08:36:24.182Z,636.00
2024-02-22T08:37:24.192Z,635.00
2024-02-22T08:38:24.506Z,636.00
2024-02-22T08:39:24.269Z,635.00
2024-02-22T08:40:34.762Z,633.00
2024-02-22T08:41:25.239Z,633.00
2024-02-22T08:42:24.194Z,634.00
2024-02-22T08:43:24.413Z,636.00
2024-02-22T08:44:24.268Z,639.00
2024-02-22T08:45:24.228Z,643.00
2024-02-22T08:46:24.744Z,652.00
2024-02-22T08:47:32.551Z,600.00
2024-02-22T08:48:32.576Z,600.00
2024-02-22T08:49:32.469Z,600.00
2024-02-22T08:50:32.419Z,600.00
2024-02-22T08:51:32.335Z,600.00
2024-02-22T08:52:32.416Z,602.00
2024-02-22T08:53:32.390Z,606.00
2024-02-22T08:54:32.342Z,612.00
2024-02-22T08:55:32.446Z,620.00
2024-02-22T08:56:32.447Z,621.00
2024-02-22T08:57:39.337Z,618.00
2024-02-22T08:58:33.482Z,618.00
2024-02-22T08:59:32.454Z,619.00
2024-02-22T09:00:32.422Z,621.00
2024-02-22T09:01:32.395Z,626.00
2024-02-22T09:02:32.337Z,624.00
2024-02-22T09:03:32.459Z,628.00
2024-02-22T09:04:32.438Z,630.00
2024-02-22T09:05:32.418Z,635.00
2024-02-22T09:06:32.479Z,641.00
2024-02-22T09:07:32.448Z,639.00
2024-02-22T09:08:32.400Z,643.00
2024-02-22T09:09:32.346Z,639.00
2024-02-22T09:10:32.348Z,635.00
2024-02-22T09:11:32.454Z,633.00
2024-02-22T09:12:32.476Z,637.00
2024-02-22T09:13:32.548Z,640.00
2024-02-22T09:14:32.444Z,647.00
2024-02-22T09:15:32.462Z,658.00
2024-02-22T09:16:32.551Z,659.00
2024-02-22T09:17:32.538Z,661.00
2024-02-22T09:18:32.583Z,661.00
2024-02-22T09:19:32.596Z,664.00
2024-02-22T09:20:32.597Z,668.00
2024-02-22T09:21:32.570Z,661.00
2024-02-22T09:22:33.068Z,660.00
2024-02-22T09:23:32.746Z,663.00
2024-02-22T09:24:32.746Z,660.00
2024-02-22T09:25:32.927Z,657.00
2024-02-22T09:26:32.845Z,646.00
2024-02-22T09:27:32.879Z,642.00
2024-02-22T09:28:33.478Z,643.00
2024-02-22T09:29:33.452Z,643.00
2024-02-22T09:30:33.016Z,646.00
2024-02-22T09:31:33.125Z,639.00
2024-02-22T09:32:33.471Z,635.00
2024-02-22T09:33:33.232Z,630.00
2024-02-22T09:34:33.359Z,628.00
2024-02-22T09:35:33.334Z,625.00
2024-02-22T09:36:33.378Z,621.00
2024-02-22T09:37:33.553Z,610.00
2024-02-22T09:38:33.475Z,604.00
2024-02-22T09:39:33.982Z,602.00
2024-02-22T09:40:33.422Z,601.00
2024-02-22T09:41:33.431Z,601.00
2024-02-22T09:42:33.453Z,600.00
2024-02-22T09:43:33.482Z,600.00
2024-02-22T09:44:33.479Z,600.00
2024-02-22T09:45:33.513Z,601.00
2024-02-22T09:46:33.615Z,601.00
2024-02-22T09:47:34.132Z,601.00
2024-02-22T09:48:33.871Z,603.00
2024-02-22T09:49:33.894Z,607.00
2024-02-22T09:50:33.947Z,609.00
2024-02-22T09:51:33.910Z,609.00
2024-02-22T09:52:33.998Z,609.00
2024-02-22T09:53:34.133Z,611.00
2024-02-22T09:54:34.119Z,605.00
2024-02-22T09:55:34.192Z,601.00
2024-02-22T09:56:34.184Z,607.00
2024-02-22T09:57:34.227Z,600.00
2024-02-22T09:58:34.336Z,597.00
2024-02-22T09:59:34.317Z,604.00
2024-02-22T10:00:34.357Z,612.00
2024-02-22T10:01:34.445Z,611.00
2024-02-22T10:02:34.457Z,620.00
2024-02-22T10:03:34.485Z,620.00
2024-02-22T10:04:34.521Z,620.00
2024-02-22T10:05:34.611Z,628.00
2024-02-22T10:06:34.772Z,638.00
2024-02-22T10:07:34.716Z,648.00
2024-02-22T10:08:34.713Z,657.00
2024-02-22T10:09:34.721Z,673.00
2024-02-22T10:10:34.825Z,764.00
2024-02-22T10:11:35.007Z,789.00
2024-02-22T10:12:36.323Z,830.00
2024-02-22T10:13:35.238Z,850.00
2024-02-22T10:14:35.113Z,863.00
2024-02-22T10:15:35.152Z,875.00
2024-02-22T10:16:35.260Z,894.00
2024-02-22T10:17:35.348Z,906.00
2024-02-22T10:18:35.405Z,916.00
2024-02-22T10:19:35.472Z,933.00
2024-02-22T10:20:35.805Z,947.00
2024-02-22T10:21:35.515Z,958.00
2024-02-22T10:22:35.621Z,974.00
2024-02-22T10:23:35.627Z,998.00
2024-02-22T10:24:35.686Z,996.00
2024-02-22T10:25:35.942Z,1006.00
2024-02-22T10:26:35.896Z,1027.00
2024-02-22T10:27:35.898Z,1033.00
2024-02-22T10:28:35.969Z,1043.00
2024-02-22T10:29:35.986Z,1064.00
2024-02-22T10:30:36.077Z,1069.00
2024-02-22T10:31:36.175Z,1113.00
2024-02-22T10:32:36.278Z,1132.00
2024-02-22T10:33:36.385Z,1158.00
2024-02-22T10:34:36.405Z,1200.00
2024-02-22T10:35:36.444Z,1241.00
2024-02-22T10:36:36.447Z,1243.00
2024-02-22T10:37:36.579Z,1240.00
2024-02-22T10:38:36.470Z,1239.00
2024-02-22T10:39:36.525Z,1239.00
2024-02-22T10:40:36.892Z,1232.00
2024-02-22T10:41:36.572Z,1235.00
2024-02-22T10:42:37.002Z,1238.00
2024-02-22T10:43:36.805Z,1233.00
2024-02-22T10:44:36.805Z,1259.00
2024-02-22T10:45:36.767Z,1258.00
2024-02-22T10:46:36.979Z,1254.00
2024-02-22T10:47:37.051Z,1278.00
2024-02-22T10:48:37.009Z,1266.00
2024-02-22T10:49:36.943Z,1301.00
2024-02-22T10:50:37.003Z,1345.00
2024-02-22T10:51:37.072Z,1360.00
2024-02-22T10:52:37.515Z,1371.00
2024-02-22T10:53:37.037Z,1385.00
2024-02-22T10:54:37.094Z,1284.00
2024-02-22T10:55:37.189Z,1254.00
2024-02-22T10:56:37.291Z,1170.00
2024-02-22T10:57:37.989Z,1191.00
2024-02-22T10:58:37.365Z,1209.00
2024-02-22T10:59:37.433Z,985.00
2024-02-22T11:00:37.432Z,821.00
2024-02-22T11:01:37.434Z,703.00
2024-02-22T11:02:37.458Z,611.00
2024-02-22T11:03:37.519Z,613.00
2024-02-22T11:04:37.564Z,617.00
2024-02-22T11:05:37.559Z,600.00
2024-02-22T11:06:37.586Z,605.00
2024-02-22T11:07:37.621Z,598.00
2024-02-22T11:08:37.598Z,596.00
2024-02-22T11:09:37.643Z,603.00
2024-02-22T11:10:37.684Z,615.00
2024-02-22T11:11:37.881Z,597.00
2024-02-22T11:12:37.776Z,611.00
2024-02-22T11:13:38.022Z,590.00
2024-02-22T11:14:37.870Z,564.00
2024-02-22T11:15:37.914Z,554.00
2024-02-22T11:16:38.015Z,475.00
2024-02-22T11:17:38.039Z,447.00
2024-02-22T11:18:38.101Z,429.00
2024-02-22T11:19:38.182Z,444.00
2024-02-22T11:20:38.151Z,425.00
2024-02-22T11:21:38.193Z,490.00
2024-02-22T11:22:38.352Z,526.00
2024-02-22T11:23:39.092Z,606.00
2024-02-22T11:24:38.377Z,644.00
2024-02-22T11:25:38.427Z,723.00
2024-02-22T11:26:38.464Z,780.00
2024-02-22T11:27:38.530Z,648.00
2024-02-22T11:28:38.553Z,663.00
2024-02-22T11:29:38.559Z,681.00
2024-02-22T11:30:38.625Z,777.00
2024-02-22T11:31:38.698Z,884.00
2024-02-22T11:32:38.802Z,847.00
2024-02-22T11:33:39.586Z,768.00
2024-02-22T11:34:38.931Z,685.00
2024-02-22T11:35:38.991Z,593.00
2024-02-22T11:36:38.956Z,639.00
2024-02-22T11:37:39.049Z,634.00
2024-02-22T11:38:39.064Z,600.00
2024-02-22T11:39:39.099Z,600.00
2024-02-22T11:40:39.402Z,633.00
2024-02-22T11:41:39.206Z,587.00
2024-02-22T11:42:39.299Z,546.00
2024-02-22T11:43:39.356Z,637.00
2024-02-22T11:44:39.392Z,607.00
2024-02-22T11:45:39.412Z,599.00
2024-02-22T11:46:39.577Z,594.00
2024-02-22T11:47:39.584Z,609.00
2024-02-22T11:48:39.792Z,602.00
2024-02-22T11:49:39.670Z,620.00
2024-02-22T11:50:39.648Z,601.00
2024-02-22T11:51:39.699Z,618.00
2024-02-22T11:52:40.027Z,616.00
2024-02-22T11:53:40.425Z,612.00
2024-02-22T11:54:39.844Z,601.00
2024-02-22T11:55:39.951Z,640.00
2024-02-22T11:56:39.984Z,632.00
2024-02-22T11:57:40.042Z,653.00
2024-02-22T11:58:40.153Z,698.00
2024-02-22T11:59:40.120Z,755.00
2024-02-22T12:00:40.322Z,710.00
2024-02-22T12:01:40.210Z,759.00
2024-02-22T12:02:40.224Z,636.00
2024-02-22T12:03:40.220Z,675.00
2024-02-22T12:04:40.339Z,664.00
2024-02-22T12:05:40.396Z,659.00
2024-02-22T12:06:40.484Z,631.00
2024-02-22T12:07:40.701Z,608.00
2024-02-22T12:08:40.491Z,632.00
2024-02-22T12:09:40.565Z,635.00
2024-02-22T12:10:40.728Z,666.00
2024-02-22T12:11:40.753Z,772.00
2024-02-22T12:12:40.998Z,849.00
2024-02-22T12:13:40.878Z,786.00
2024-02-22T12:14:40.879Z,698.00
2024-02-22T12:15:40.962Z,785.00
2024-02-22T12:16:41.035Z,821.00
2024-02-22T12:17:41.191Z,950.00
2024-02-22T12:18:41.258Z,1026.00